Time;durP1;ratioP1;P1;durP2;ratioP2;P2;SDS_P1;SDS_P2;PMS_P1;PMS_P2;Temp;Humidity;BMP_temperature;BMP_pressure;BME280_temperature;BME280_humidity;BME280_pressure;Samples;Min_cycle;Max_cycle;Signal;HPM_P1;HPM_P2
2022/04/27 00:02:03;;;;;;;4.40;3.38;;;;;;;6.66;65.30;102297.72;5052679;28;20075;-82
2022/04/27 00:04:28;;;;;;;4.87;3.40;;;;;;;6.62;65.34;102290.75;5053192;28;20115;-82
2022/04/27 00:06:53;;;;;;;4.38;3.30;;;;;;;6.58;65.42;102294.09;5053205;28;20048;-82
2022/04/27 00:09:19;;;;;;;5.40;3.45;;;;;;;6.52;65.47;102299.09;5052747;28;20358;-82
2022/04/27 00:11:44;;;;;;;5.13;3.30;;;;;;;6.46;65.71;102294.66;5052449;28;20048;-82
2022/04/27 00:14:09;;;;;;;5.68;3.33;;;;;;;6.38;65.73;102298.75;5053277;28;20473;-82
2022/04/27 00:16:35;;;;;;;5.40;3.43;;;;;;;6.33;65.71;102288.31;5052483;28;20032;-82
2022/04/27 00:19:01;;;;;;;5.13;3.03;;;;;;;6.26;66.00;102284.72;5052967;28;20068;-82
2022/04/27 00:21:26;;;;;;;4.68;3.20;;;;;;;6.21;66.25;102291.44;5052992;28;20032;-82
2022/04/27 00:23:51;;;;;;;3.90;3.00;;;;;;;6.15;66.22;102289.56;5052204;28;20025;-82
2022/04/27 00:26:17;;;;;;;5.38;3.40;;;;;;;6.12;66.00;102286.94;5053121;28;20596;-82
2022/04/27 00:28:42;;;;;;;5.63;3.25;;;;;;;6.11;66.34;102284.28;5052829;28;20563;-82
2022/04/27 00:31:07;;;;;;;5.23;3.37;;;;;;;6.05;66.31;102284.16;5052348;28;20021;-82
2022/04/27 00:33:32;;;;;;;4.20;3.17;;;;;;;5.99;66.56;102290.88;5052821;28;20031;-82
2022/04/27 00:35:58;;;;;;;4.95;3.40;;;;;;;5.95;66.83;102293.28;5051671;28;20118;-82
2022/04/27 00:38:23;;;;;;;5.55;3.38;;;;;;;5.91;66.68;102292.34;5052406;28;20421;-82
2022/04/27 00:40:48;;;;;;;5.50;3.43;;;;;;;5.86;66.98;102292.22;5052508;28;20028;-82
2022/04/27 00:43:14;;;;;;;5.40;3.70;;;;;;;5.82;67.14;102290.38;5052013;28;20037;-83
2022/04/27 00:45:40;;;;;;;4.43;3.30;;;;;;;5.76;67.12;102292.78;5049521;28;20040;-82
2022/04/27 00:48:06;;;;;;;5.45;3.47;;;;;;;5.71;67.28;102299.50;5052460;28;20029;-82
2022/04/27 00:50:32;;;;;;;4.35;3.25;;;;;;;5.67;67.37;102290.81;5051846;28;20028;-81
2022/04/27 00:52:59;;;;;;;5.15;3.40;;;;;;;5.62;67.18;102292.41;5051766;28;20025;-82
2022/04/27 00:55:25;;;;;;;5.10;3.22;;;;;;;5.59;67.50;102297.47;5052489;28;20322;-82
2022/04/27 00:57:51;;;;;;;6.70;3.83;;;;;;;5.56;67.43;102299.94;5051186;28;20017;-82
2022/04/27 01:00:17;;;;;;;5.43;3.60;;;;;;;5.52;67.56;102299.00;5052393;28;20037;-82
2022/04/27 01:02:43;;;;;;;5.97;3.77;;;;;;;5.48;67.52;102297.13;5052389;28;20021;-82
2022/04/27 01:05:11;;;;;;;5.60;3.53;;;;;;;5.45;67.86;102299.66;5051652;28;20071;-82
2022/04/27 01:07:41;;;;;;;5.00;3.55;;;;;;;5.39;67.65;102299.44;5052350;28;20017;-82
2022/04/27 01:10:08;;;;;;;6.47;3.65;;;;;;;5.36;67.78;102300.25;5052448;28;20078;-82
2022/04/27 01:12:35;;;;;;;5.95;3.92;;;;;;;5.35;67.77;102308.78;5050431;28;20064;-82
2022/04/27 01:15:00;;;;;;;7.28;4.03;;;;;;;5.32;67.95;102313.84;5052130;28;20032;-82
2022/04/27 01:17:25;;;;;;;6.80;4.10;;;;;;;5.31;68.05;102316.38;5052508;28;20040;-82
2022/04/27 01:19:51;;;;;;;6.53;4.05;;;;;;;5.26;68.04;102313.66;5051129;28;20053;-82
2022/04/27 01:22:19;;;;;;;6.70;4.03;;;;;;;5.22;68.18;102315.28;5052588;28;20043;-82
2022/04/27 01:24:44;;;;;;;5.93;4.05;;;;;;;5.19;68.17;102317.75;5052020;28;20017;-81
2022/04/27 01:27:10;;;;;;;6.47;3.90;;;;;;;5.19;68.13;102314.28;5051251;28;20132;-82
2022/04/27 01:29:36;;;;;;;7.35;4.00;;;;;;;5.15;68.34;102320.19;5051511;28;20037;-82
2022/04/27 01:32:02;;;;;;;5.97;3.92;;;;;;;5.15;68.45;102322.75;5051947;28;20417;-82
2022/04/27 01:34:28;;;;;;;6.77;4.10;;;;;;;5.12;68.53;102317.50;5052032;28;20107;-82
2022/04/27 01:37:59;;;;;;;6.30;3.80;;;;;;;5.12;68.30;102320.97;5051941;28;20085;-83
2022/04/27 01:39:45;;;;;;;5.95;3.90;;;;;;;5.10;68.72;102320.91;5050944;28;20035;-83
2022/04/27 01:42:10;;;;;;;8.15;4.20;;;;;;;5.08;68.75;102319.97;5051906;28;20100;-82
2022/04/27 01:44:35;;;;;;;6.18;3.92;;;;;;;5.09;68.72;102323.44;5052317;28;20540;-83
2022/04/27 01:47:00;;;;;;;7.10;4.20;;;;;;;5.07;68.55;102322.50;5051053;28;20029;-83
2022/04/27 01:49:26;;;;;;;6.25;3.88;;;;;;;5.05;68.50;102324.16;5052170;28;20120;-83
2022/04/27 01:54:35;;;;;;;6.03;3.67;;;;;;;4.97;69.13;102321.34;5051359;28;20036;-83
2022/04/27 01:57:00;;;;;;;6.20;3.92;;;;;;;4.92;68.86;102323.78;5052046;28;20028;-84
2022/04/27 01:59:25;;;;;;;5.85;3.72;;;;;;;4.89;69.61;102325.38;5052226;28;20438;-83
2022/04/27 02:01:50;;;;;;;5.15;3.83;;;;;;;4.86;69.11;102325.28;5051340;28;20028;-83
2022/04/27 02:04:16;;;;;;;6.22;3.90;;;;;;;4.85;69.56;102336.38;5053851;28;20021;-83
2022/04/27 02:06:42;;;;;;;7.18;4.18;;;;;;;4.80;69.47;102336.22;5055424;28;20111;-83
2022/04/27 02:09:10;;;;;;;5.68;3.70;;;;;;;4.77;69.13;102334.44;5054081;28;20037;-83
2022/04/27 02:11:35;;;;;;;7.22;4.43;;;;;;;4.74;69.57;102334.34;5055242;28;20048;-83
2022/04/27 02:14:01;;;;;;;7.47;4.22;;;;;;;4.72;69.36;102336.00;5054987;28;20029;-83
2022/04/27 02:16:28;;;;;;;6.43;4.10;;;;;;;4.70;69.47;102337.66;5054792;28;20074;-83
2022/04/27 02:18:55;;;;;;;6.47;3.97;;;;;;;4.67;69.71;102337.53;5055020;28;20025;-83
2022/04/27 02:21:21;;;;;;;7.20;4.20;;;;;;;4.64;69.47;102338.31;5054520;28;20021;-83
2022/04/27 02:23:47;;;;;;;7.20;4.03;;;;;;;4.61;69.54;102335.63;5055102;28;20098;-83
2022/04/27 02:26:12;;;;;;;6.68;4.10;;;;;;;4.59;69.80;102333.84;5054973;28;20325;-83
2022/04/27 02:28:39;;;;;;;6.68;4.00;;;;;;;4.57;69.73;102345.78;5054388;28;20048;-83
2022/04/27 02:31:04;;;;;;;6.75;3.95;;;;;;;4.55;70.06;102343.16;5055469;28;20025;-83
2022/04/27 02:33:30;;;;;;;5.55;3.85;;;;;;;4.55;70.53;102348.31;5055247;28;20032;-83
2022/04/27 02:35:56;;;;;;;6.10;3.85;;;;;;;4.54;69.97;102348.22;5054353;28;20441;-83
2022/04/27 02:38:21;;;;;;;5.60;3.80;;;;;;;4.55;70.38;102347.41;5054596;28;20116;-83
2022/04/27 02:40:46;;;;;;;7.18;4.20;;;;;;;4.56;70.64;102349.16;5054627;28;20037;-83
2022/04/27 02:43:12;;;;;;;6.53;3.80;;;;;;;4.54;70.74;102349.13;5054392;28;20056;-84
2022/04/27 02:45:41;;;;;;;6.10;3.65;;;;;;;4.54;70.59;102350.81;5054674;28;20020;-83
2022/04/27 02:48:07;;;;;;;6.32;3.95;;;;;;;4.53;70.35;102351.63;5054150;28;20047;-83
2022/04/27 02:53:16;;;;;;;8.55;4.60;;;;;;;4.57;70.60;102358.63;5054881;28;20171;-83
2022/04/27 02:55:42;;;;;;;7.28;4.13;;;;;;;4.55;70.48;102358.59;5054046;28;20104;-83
2022/04/27 02:58:07;;;;;;;6.68;3.92;;;;;;;4.57;70.39;102363.78;5054016;28;20043;-83
2022/04/27 03:00:34;;;;;;;7.45;4.53;;;;;;;4.58;70.37;102358.66;5054674;28;20025;-83
2022/04/27 03:02:59;;;;;;;7.03;4.13;;;;;;;4.58;70.72;102357.81;5054125;28;20401;-84
2022/04/27 03:05:24;;;;;;;8.25;4.45;;;;;;;4.55;70.28;102353.44;5053230;28;20025;-83
2022/04/27 03:07:52;;;;;;;6.60;4.20;;;;;;;4.54;70.57;102354.25;5054084;28;20119;-83
2022/04/27 03:10:17;;;;;;;6.38;4.10;;;;;;;4.55;70.81;102362.84;5054541;28;20032;-83
2022/04/27 03:12:43;;;;;;;7.75;4.28;;;;;;;4.52;70.22;102360.16;5053313;28;20021;-83
2022/04/27 03:15:08;;;;;;;7.22;4.22;;;;;;;4.48;70.15;102354.94;5053477;28;20363;-83
2022/04/27 03:17:34;;;;;;;7.32;4.40;;;;;;;4.48;70.79;102359.19;5053890;28;20040;-83
2022/04/27 03:19:59;;;;;;;7.50;4.50;;;;;;;4.44;70.62;102354.78;5054051;28;20427;-84
2022/04/27 03:22:24;;;;;;;6.97;4.30;;;;;;;4.40;70.61;102356.34;5054769;28;20103;-84
2022/04/27 03:24:50;;;;;;;6.72;4.30;;;;;;;4.36;70.81;102356.19;5053359;28;20204;-83
2022/04/27 03:27:15;;;;;;;7.65;4.55;;;;;;;4.30;70.85;102360.31;5054011;28;20080;-83
2022/04/27 03:29:40;;;;;;;7.65;4.10;;;;;;;4.27;70.94;102356.75;5052494;28;20516;-84
2022/04/27 03:32:06;;;;;;;6.38;4.10;;;;;;;4.24;71.33;102360.06;5053239;28;20134;-83
2022/04/27 03:34:31;;;;;;;8.40;4.70;;;;;;;4.24;70.91;102366.91;5053836;28;20025;-83
2022/04/27 03:36:57;;;;;;;7.32;4.70;;;;;;;4.21;71.14;102366.81;5053472;28;20111;-84
2022/04/27 03:39:25;;;;;;;7.65;4.47;;;;;;;4.17;71.35;102368.41;5053329;28;20025;-84
2022/04/27 03:41:50;;;;;;;8.13;4.60;;;;;;;4.15;71.08;102372.59;5053563;28;20043;-83
2022/04/27 03:44:15;;;;;;;6.55;4.13;;;;;;;4.11;71.24;102373.31;5053889;28;20477;-84
2022/04/27 03:46:41;;;;;;;6.82;4.15;;;;;;;4.07;71.25;102377.47;5053011;28;20090;-84
2022/04/27 03:49:06;;;;;;;7.20;4.55;;;;;;;4.02;71.19;102376.44;5053280;28;20392;-84
2022/04/27 03:51:31;;;;;;;8.23;4.53;;;;;;;3.96;71.22;102376.19;5053691;28;20032;-83
2022/04/27 03:53:56;;;;;;;8.65;4.80;;;;;;;3.93;71.54;102376.97;5052431;28;20037;-82
2022/04/27 03:56:22;;;;;;;7.32;4.30;;;;;;;3.90;71.84;102381.13;5053257;28;20054;-81
2022/04/27 03:58:47;;;;;;;7.25;4.40;;;;;;;3.87;71.81;102376.75;5053172;28;20556;-82
2022/04/27 04:01:12;;;;;;;8.00;4.40;;;;;;;3.81;71.66;102385.09;5052657;28;20048;-83
2022/04/27 04:03:38;;;;;;;7.05;4.03;;;;;;;3.80;71.97;102391.06;5053352;28;20033;-84
2022/04/27 04:06:03;;;;;;;6.80;4.15;;;;;;;3.78;71.84;102390.09;5053145;28;20029;-84
2022/04/27 04:08:28;;;;;;;7.18;4.28;;;;;;;3.76;72.15;102398.59;5052271;28;20024;-83
2022/04/27 04:10:53;;;;;;;6.70;4.10;;;;;;;3.73;71.80;102386.47;5053095;28;20075;-84
2022/04/27 04:13:19;;;;;;;7.10;4.28;;;;;;;3.71;71.85;102391.56;5053194;28;20032;-83
2022/04/27 04:15:44;;;;;;;6.72;3.90;;;;;;;3.69;71.98;102390.63;5052104;28;20483;-83
2022/04/27 04:18:12;;;;;;;7.40;4.10;;;;;;;3.68;72.15;102403.41;5053178;28;20029;-83
2022/04/27 04:20:37;;;;;;;7.05;4.30;;;;;;;3.67;72.25;102401.66;5052843;28;20083;-84
2022/04/27 04:23:02;;;;;;;7.47;4.15;;;;;;;3.68;72.64;102400.84;5052464;28;20028;-84
2022/04/27 04:28:32;;;;;;;7.00;4.00;;;;;;;3.64;72.12;102405.00;5051305;28;20052;-84
2022/04/27 04:31:02;;;;;;;6.78;4.10;;;;;;;3.63;72.35;102399.78;5052423;28;20499;-83
2022/04/27 04:33:28;;;;;;;7.28;4.22;;;;;;;3.62;72.27;102413.44;5052832;28;20017;-84
2022/04/27 04:35:54;;;;;;;7.80;4.13;;;;;;;3.60;72.48;102403.13;5052117;28;20052;-84
2022/04/27 04:38:22;;;;;;;6.45;3.92;;;;;;;3.59;72.53;102419.34;5053016;28;20469;-84
2022/04/27 04:40:48;;;;;;;8.15;4.18;;;;;;;3.59;72.27;102421.03;5052571;28;20025;-84
2022/04/27 04:43:13;;;;;;;6.20;4.10;;;;;;;3.59;72.30;102423.63;5052188;28;20358;-84
2022/04/27 04:45:39;;;;;;;6.28;3.92;;;;;;;3.59;72.67;102428.75;5052078;28;20389;-83
2022/04/27 04:48:05;;;;;;;6.70;3.83;;;;;;;3.59;72.78;102429.59;5052897;28;20380;-83
2022/04/27 04:50:30;;;;;;;7.63;4.20;;;;;;;3.59;72.30;102439.88;5051149;28;20036;-84
2022/04/27 04:52:55;;;;;;;6.55;3.95;;;;;;;3.58;72.36;102434.69;5052283;28;20079;-84
2022/04/27 04:55:21;;;;;;;7.20;4.20;;;;;;;3.60;72.39;102451.03;5052735;28;20120;-84
2022/04/27 04:57:46;;;;;;;7.93;4.40;;;;;;;3.61;72.74;102438.25;5051563;28;20100;-83
2022/04/27 05:00:11;;;;;;;7.63;4.43;;;;;;;3.62;72.84;102439.13;5052513;28;20365;-84
2022/04/27 05:02:37;;;;;;;7.50;4.38;;;;;;;3.64;72.84;102440.06;5052310;28;20083;-83
2022/04/27 05:05:03;;;;;;;10.05;4.88;;;;;;;3.68;72.80;102444.50;5051797;28;20032;-83
2022/04/27 05:07:30;;;;;;;8.43;4.78;;;;;;;3.71;72.83;102439.50;5052038;28;20473;-84
2022/04/27 05:09:55;;;;;;;7.78;4.57;;;;;;;3.77;72.62;102444.84;5052349;28;20025;-84
2022/04/27 05:12:20;;;;;;;8.38;4.88;;;;;;;3.80;72.74;102449.22;5051795;28;20021;-84
2022/04/27 05:14:46;;;;;;;7.63;4.40;;;;;;;3.82;72.68;102448.50;5052264;28;20372;-84
2022/04/27 05:17:11;;;;;;;7.45;4.43;;;;;;;3.85;72.68;102451.16;5052060;28;20094;-84
2022/04/27 05:19:37;;;;;;;8.48;4.60;;;;;;;3.90;72.37;102448.75;5052369;28;20098;-83
2022/04/27 05:22:02;;;;;;;7.28;4.40;;;;;;;3.92;72.74;102449.69;5052628;28;20029;-83
2022/04/27 05:24:29;;;;;;;7.03;4.22;;;;;;;3.95;72.50;102452.41;5051763;28;20033;-84
2022/04/27 05:26:54;;;;;;;8.32;4.43;;;;;;;4.01;72.61;102457.75;5051942;28;20071;-84
2022/04/27 05:32:05;;;;;;;8.63;4.50;;;;;;;4.13;72.83;102462.50;5051657;28;20051;-83
2022/04/27 05:34:33;;;;;;;6.70;4.00;;;;;;;4.20;72.84;102462.72;5052172;28;20032;-84
2022/04/27 05:36:58;;;;;;;6.55;4.00;;;;;;;4.26;72.93;102468.94;5051531;28;20021;-84
2022/04/27 05:39:26;;;;;;;6.32;4.10;;;;;;;4.32;73.13;102476.00;5053577;28;20480;-84
2022/04/27 05:41:53;;;;;;;6.57;3.83;;;;;;;4.37;73.21;102476.19;5055659;28;20362;-83
2022/04/27 05:44:21;;;;;;;6.68;3.90;;;;;;;4.42;72.74;102477.25;5055915;28;20458;-84
2022/04/27 05:46:47;;;;;;;6.80;3.65;;;;;;;4.46;73.25;102479.97;5055092;28;20017;-83
2022/04/27 05:49:12;;;;;;;5.90;4.00;;;;;;;4.52;72.67;102484.47;5055981;28;20412;-84
2022/04/27 05:51:38;;;;;;;5.90;3.70;;;;;;;4.59;72.93;102483.84;5055145;28;20024;-84
2022/04/27 05:54:03;;;;;;;5.72;3.70;;;;;;;4.65;73.16;102485.78;5055087;28;20477;-84
2022/04/27 05:56:29;;;;;;;5.82;3.47;;;;;;;4.71;73.54;102487.69;5055728;28;20033;-85
2022/04/27 05:58:54;;;;;;;5.05;3.30;;;;;;;4.78;73.50;102484.53;5055568;28;20116;-85
2022/04/27 06:01:20;;;;;;;4.57;3.00;;;;;;;4.84;73.81;102487.31;5055470;28;20025;-87
2022/04/27 06:03:45;;;;;;;4.10;2.85;;;;;;;4.90;74.44;102491.78;5055693;28;20123;-84
2022/04/27 06:06:10;;;;;;;4.70;2.90;;;;;;;4.95;74.54;102485.13;5055325;28;20066;-84
2022/04/27 06:08:36;;;;;;;3.70;2.85;;;;;;;5.02;74.19;102487.06;5054738;28;20509;-83
2022/04/27 06:11:01;;;;;;;2.70;2.45;;;;;;;5.09;74.19;102493.28;5055080;28;20036;-84
2022/04/27 06:13:27;;;;;;;4.68;2.90;;;;;;;5.13;75.32;102486.56;5054789;28;20025;-82
2022/04/27 06:15:52;;;;;;;2.92;2.50;;;;;;;5.19;75.14;102497.94;5055373;28;20178;-81
2022/04/27 06:18:17;;;;;;;3.03;2.45;;;;;;;5.25;74.85;102503.28;5055563;28;20373;-81
2022/04/27 06:20:43;;;;;;;3.88;2.58;;;;;;;5.32;74.90;102498.34;5053989;28;20029;-81
2022/04/27 06:23:09;;;;;;;2.90;2.30;;;;;;;5.38;74.95;102501.09;5055211;28;20029;-81
2022/04/27 06:25:39;;;;;;;2.70;2.22;;;;;;;5.45;74.58;102508.22;5055343;28;20036;-81
2022/04/27 06:28:05;;;;;;;5.60;3.67;;;;;;;5.54;77.17;102510.19;5053693;28;20102;-81
2022/04/27 06:30:30;;;;;;;7.78;4.35;;;;;;;5.63;75.87;102514.78;5055055;28;20032;-81
2022/04/27 06:32:55;;;;;;;7.75;4.43;;;;;;;5.69;75.62;102512.41;5055003;28;20025;-81
2022/04/27 06:35:20;;;;;;;8.40;4.20;;;;;;;5.78;75.46;102517.88;5054153;28;20115;-81
2022/04/27 06:37:46;;;;;;;7.72;4.70;;;;;;;5.86;75.31;102515.50;5054341;28;20036;-81
2022/04/27 06:40:12;;;;;;;9.13;3.95;;;;;;;5.92;74.80;102513.13;5054960;28;20044;-81
2022/04/27 06:42:42;;;;;;;12.47;5.80;;;;;;;6.02;75.40;102520.34;5054102;28;20041;-81
2022/04/27 06:45:10;;;;;;;9.63;5.40;;;;;;;6.12;75.78;102518.94;5055071;28;20033;-81
2022/04/27 06:47:36;;;;;;;13.32;6.97;;;;;;;6.21;74.74;102514.88;5054785;28;20366;-81
2022/04/27 06:50:01;;;;;;;14.25;7.15;;;;;;;6.33;76.08;102526.41;5052760;28;20115;-81
2022/04/27 06:52:26;;;;;;;12.05;6.50;;;;;;;7.28;75.72;102530.69;5054680;28;20037;-81
2022/04/27 06:54:52;;;;;;;10.65;5.88;;;;;;;9.80;72.86;102522.84;5054564;28;20373;-81
2022/04/27 06:57:17;;;;;;;9.00;5.00;;;;;;;12.57;67.12;102523.69;5054130;28;20035;-82
2022/04/27 06:59:48;;;;;;;8.55;5.28;;;;;;;14.87;61.64;102525.13;5054283;28;20047;-82
2022/04/27 07:02:15;;;;;;;16.88;6.97;;;;;;;16.50;47.40;102524.44;5050504;28;20032;-82
2022/04/27 07:04:43;;;;;;;9.07;5.68;;;;;;;17.23;53.93;102530.38;5059241;28;20386;-84
2022/04/27 07:07:09;;;;;;;9.55;5.72;;;;;;;18.06;51.13;102528.91;5053826;28;20025;-82
2022/04/27 07:09:35;;;;;;;9.73;5.10;;;;;;;18.62;49.63;102533.00;5053727;28;20090;-83
2022/04/27 07:12:00;;;;;;;6.25;4.28;;;;;;;18.64;48.56;102530.34;5051032;28;20056;-84
2022/04/27 07:14:25;;;;;;;7.27;4.80;;;;;;;18.18;46.76;102537.44;5054203;28;20063;-83
2022/04/27 07:16:51;;;;;;;6.97;4.33;;;;;;;17.12;47.65;102534.03;5051759;28;20021;-82
2022/04/27 07:19:17;;;;;;;6.83;4.60;;;;;;;15.99;48.71;102539.88;5054241;28;20434;-82
2022/04/27 07:21:43;;;;;;;7.50;4.40;;;;;;;14.97;51.36;102549.47;5053689;28;20028;-82
2022/04/27 07:24:08;;;;;;;7.30;4.50;;;;;;;14.05;52.46;102535.91;5053620;28;20385;-82
2022/04/27 07:26:34;;;;;;;9.67;5.20;;;;;;;13.15;50.86;102549.00;5053787;28;20113;-82
2022/04/27 07:28:59;;;;;;;10.60;5.30;;;;;;;12.40;56.25;102550.50;5053921;28;20182;-82
2022/04/27 07:31:25;;;;;;;9.60;5.33;;;;;;;11.79;54.96;102557.09;5052681;28;20017;-82
2022/04/27 07:33:52;;;;;;;13.93;6.93;;;;;;;10.97;56.88;102546.84;5053639;28;20024;-83
2022/04/27 07:36:17;;;;;;;13.02;6.57;;;;;;;10.66;56.08;102558.59;5053875;28;20104;-83
2022/04/27 07:38:43;;;;;;;12.03;6.27;;;;;;;10.35;56.65;102559.09;5053050;28;20130;-83
2022/04/27 07:41:08;;;;;;;11.13;6.23;;;;;;;10.13;58.24;102564.84;5053707;28;20028;-83
2022/04/27 07:43:34;;;;;;;9.90;5.97;;;;;;;10.04;58.44;102570.75;5053790;28;20036;-83
2022/04/27 07:46:00;;;;;;;14.40;6.67;;;;;;;9.91;57.71;102566.22;5052768;28;20358;-83
2022/04/27 07:48:32;;;;;;;11.23;5.32;;;;;;;9.88;58.96;102569.66;5053731;28;20025;-83
2022/04/27 07:50:57;;;;;;;10.80;5.90;;;;;;;9.85;57.31;102559.22;5053329;28;20057;-82
2022/04/27 07:53:22;;;;;;;11.17;5.53;;;;;;;9.77;55.48;102569.47;5053073;28;20110;-83
2022/04/27 07:55:48;;;;;;;9.67;5.40;;;;;;;9.82;56.12;102566.94;5053033;28;20453;-83
2022/04/27 07:58:13;;;;;;;8.63;4.80;;;;;;;9.81;56.56;102571.28;5053577;28;20035;-83
2022/04/27 08:00:38;;;;;;;10.87;5.07;;;;;;;9.87;54.79;102570.50;5052335;28;20060;-83
2022/04/27 08:03:03;;;;;;;6.97;4.30;;;;;;;9.91;57.66;102577.44;5052855;28;20033;-83
2022/04/27 08:05:29;;;;;;;8.53;4.30;;;;;;;10.08;57.51;102575.13;5052591;28;20035;-83
2022/04/27 08:07:54;;;;;;;9.43;4.80;;;;;;;10.16;55.32;102572.63;5052177;28;20473;-83
2022/04/27 08:10:20;;;;;;;8.90;4.67;;;;;;;10.08;53.58;102579.44;5053596;28;20103;-85
2022/04/27 08:12:48;;;;;;;9.73;4.78;;;;;;;10.03;53.93;102580.25;5053120;28;20025;-86
2022/04/27 08:15:14;;;;;;;7.68;4.28;;;;;;;10.09;55.50;102570.81;5052762;28;20100;-83
2022/04/27 08:17:56;;;;;;;5.10;3.50;;;;;;;10.26;56.31;102576.25;5052782;28;20067;-82
2022/04/27 08:23:09;;;;;;;9.55;4.30;;;;;;;10.56;52.86;102578.41;5053413;28;20039;-83
2022/04/27 08:25:35;;;;;;;8.00;4.00;;;;;;;10.65;54.62;102578.53;5053167;28;20055;-82
2022/04/27 08:28:05;;;;;;;6.32;3.65;;;;;;;10.82;54.31;102581.31;5050614;28;20370;-82
2022/04/27 08:30:30;;;;;;;7.90;3.85;;;;;;;10.93;54.30;102586.63;5051387;28;20040;-82
2022/04/27 08:32:59;;;;;;;5.80;3.60;;;;;;;11.07;55.40;102591.09;5052675;28;20040;-83
2022/04/27 08:35:25;;;;;;;5.32;3.85;;;;;;;11.20;53.71;102592.13;5052162;28;20028;-82
2022/04/27 08:37:50;;;;;;;8.83;4.47;;;;;;;11.18;51.01;102593.81;5052387;28;20120;-82
2022/04/27 08:40:16;;;;;;;5.03;3.60;;;;;;;11.25;52.17;102585.22;5053008;28;20071;-85
2022/04/27 08:42:41;;;;;;;6.00;3.80;;;;;;;11.37;52.49;102579.28;5051597;28;20028;-83
2022/04/27 08:45:07;;;;;;;6.83;4.57;;;;;;;11.42;52.13;102588.88;5052821;28;20124;-82
2022/04/27 08:47:34;;;;;;;7.80;4.47;;;;;;;11.46;49.57;102594.97;5052814;28;20056;-82
2022/04/27 08:50:09;;;;;;;;;;;;;;;11.56;50.79;102593.31;5052210;28;20033;-82
2022/04/27 08:52:34;;;;;;;7.28;4.20;;;;;;;11.59;50.55;102598.53;5052284;28;19919;-82
2022/04/27 08:55:01;;;;;;;5.73;3.73;;;;;;;11.64;52.44;102602.06;5052346;28;20380;-82
2022/04/27 08:57:26;;;;;;;6.90;3.70;;;;;;;11.78;50.62;102599.56;5051560;28;20024;-82
2022/04/27 08:59:51;;;;;;;7.03;3.90;;;;;;;11.86;50.94;102595.28;5052471;28;20029;-82
2022/04/27 09:02:26;;;;;;;6.53;3.60;;;;;;;11.99;52.32;102603.22;5052031;28;20029;-82
2022/04/27 09:05:10;;;;;;;5.38;3.42;;;;;;;12.16;50.09;102604.19;5052069;28;20017;-83
2022/04/27 09:07:50;;;;;;;4.97;3.47;;;;;;;12.32;51.73;102601.69;5052535;28;20107;-83
2022/04/27 09:10:18;;;;;;;6.35;3.20;;;;;;;12.42;51.44;102600.00;5051980;28;20086;-82
2022/04/27 09:12:45;;;;;;;6.50;4.10;;;;;;;12.54;46.97;102596.59;5052104;28;20028;-80
2022/04/27 09:15:10;;;;;;;5.55;3.47;;;;;;;12.57;49.04;102589.66;5055898;28;20108;-81
2022/04/27 09:23:21;;;;;;;7.93;4.63;;;;;;;12.67;47.69;102601.00;5056392;28;20095;-82
2022/04/27 09:25:48;;;;;;;5.15;3.80;;;;;;;12.78;49.90;102598.41;5056157;28;20082;-79
2022/04/27 09:28:13;;;;;;;4.80;3.13;;;;;;;12.82;50.13;102589.75;5056328;28;20049;-79
2022/04/27 09:30:38;;;;;;;4.03;2.70;;;;;;;12.86;50.57;102593.22;5055420;28;20078;-79
2022/04/27 09:33:04;;;;;;;3.53;2.97;;;;;;;13.04;49.34;102589.81;5056556;28;20446;-79
2022/04/27 09:35:32;;;;;;;4.00;2.97;;;;;;;13.20;49.08;102598.53;5056625;28;20044;-78
2022/04/27 09:38:13;;;;;;;8.35;4.60;;;;;;;13.20;46.08;102589.00;5055460;28;20033;-80
2022/04/27 09:40:44;;;;;;;7.53;4.07;;;;;;;13.29;48.74;102590.72;5055896;28;20025;-80
2022/04/27 09:43:12;;;;;;;9.30;5.32;;;;;;;13.15;46.80;102597.66;5056054;28;20536;-81
2022/04/27 09:45:37;;;;;;;6.90;4.10;;;;;;;13.05;46.52;102596.75;5054574;28;20032;-80
2022/04/27 09:48:04;;;;;;;8.20;5.03;;;;;;;12.85;45.40;102596.69;5056053;28;20032;-80
2022/04/27 09:50:46;;;;;;;7.72;4.68;;;;;;;12.63;45.82;102601.81;5055822;28;20025;-80
2022/04/27 09:53:11;;;;;;;6.95;3.97;;;;;;;12.56;47.97;102608.75;5054291;28;20060;-80
2022/04/27 09:55:43;;;;;;;5.67;3.50;;;;;;;12.52;49.11;102607.84;5055526;28;20048;-80
2022/04/27 09:58:11;;;;;;;6.40;3.75;;;;;;;12.46;46.05;102602.63;5055599;28;20087;-80
2022/04/27 10:00:38;;;;;;;5.15;3.75;;;;;;;12.59;48.86;102595.75;5054601;28;20055;-81
2022/04/27 10:03:04;;;;;;;8.38;4.70;;;;;;;12.87;47.57;102602.78;5056066;28;20041;-81
2022/04/27 10:05:32;;;;;;;8.20;4.60;;;;;;;13.01;46.12;102598.50;5055292;28;20017;-81
2022/04/27 10:08:00;;;;;;;5.63;4.00;;;;;;;13.16;47.77;102594.19;5055403;28;20040;-81
2022/04/27 10:10:25;;;;;;;4.35;3.20;;;;;;;13.36;46.75;102605.53;5055529;28;20104;-80
2022/04/27 10:12:54;;;;;;;5.90;3.93;;;;;;;13.51;47.04;102596.88;5054821;28;20914;-81
2022/04/27 10:15:19;;;;;;;9.15;4.93;;;;;;;13.70;45.13;102605.56;5055312;28;20025;-81
2022/04/27 10:17:45;;;;;;;8.47;4.53;;;;;;;13.78;45.09;102600.34;5049902;28;20029;-80
2022/04/27 10:20:30;;;;;;;11.87;6.00;;;;;;;13.83;42.65;102598.59;5054122;28;20099;-81
2022/04/27 10:23:18;;;;;;;8.18;4.88;;;;;;;14.00;46.45;102587.28;5054979;28;20136;-80
2022/04/27 10:26:11;;;;;;;6.07;3.85;;;;;;;14.38;46.03;102585.44;5054306;28;20037;-79
2022/04/27 10:28:57;;;;;;;5.07;3.60;;;;;;;14.64;45.15;102585.34;5054295;28;20037;-80
2022/04/27 10:31:46;;;;;;;4.57;3.33;;;;;;;14.97;45.57;102581.69;5055426;28;20068;-83
2022/04/27 10:34:18;;;;;;;5.65;4.00;;;;;;;15.20;41.62;102585.91;5054499;28;20477;-82
2022/04/27 10:36:44;;;;;;;7.72;4.72;;;;;;;15.21;42.06;102587.66;5054984;28;20037;-81
2022/04/27 10:39:15;;;;;;;6.75;3.70;;;;;;;15.32;44.25;102582.34;5055002;28;20071;-81
2022/04/27 10:41:57;;;;;;;8.05;4.50;;;;;;;15.43;43.58;102579.63;5054023;28;20039;-81
2022/04/27 10:44:49;;;;;;;7.20;4.03;;;;;;;15.49;43.63;102583.94;5055258;28;20016;-81
2022/04/27 10:47:16;;;;;;;5.55;3.90;;;;;;;15.69;41.87;102581.19;5054362;28;20035;-81
2022/04/27 10:49:42;;;;;;;7.07;4.32;;;;;;;15.78;42.40;102586.31;5054104;28;20029;-81
2022/04/27 10:52:09;;;;;;;8.77;5.63;;;;;;;15.65;41.48;102588.19;5054938;28;20538;-80
2022/04/27 10:54:37;;;;;;;7.15;4.50;;;;;;;15.71;41.62;102579.41;5054990;28;20027;-83
2022/04/27 10:57:14;;;;;;;8.38;4.80;;;;;;;15.62;42.55;102577.75;5054106;28;20466;-81
2022/04/27 10:59:47;;;;;;;6.63;4.18;;;;;;;15.73;39.02;102578.50;5054488;28;20461;-81
2022/04/27 11:02:38;;;;;;;7.75;5.05;;;;;;;15.77;42.11;102576.72;5053276;28;20033;-82
2022/04/27 11:05:10;;;;;;;4.72;3.67;;;;;;;16.03;42.28;102578.25;5054144;28;20025;-81
2022/04/27 11:07:44;;;;;;;3.67;3.13;;;;;;;16.28;42.24;102578.84;5054457;28;20112;-81
2022/04/27 11:10:15;;;;;;;6.53;3.97;;;;;;;16.39;38.10;102576.13;5053882;28;20059;-81
2022/04/27 11:12:43;;;;;;;7.30;3.70;;;;;;;16.48;41.63;102578.63;5054219;28;20044;-81
2022/04/27 11:15:11;;;;;;;8.15;4.45;;;;;;;16.65;40.15;102567.06;5054332;28;20029;-81
2022/04/27 11:17:40;;;;;;;10.15;6.40;;;;;;;15.76;38.59;102582.88;5053821;28;20380;-81
2022/04/27 11:20:21;;;;;;;8.95;5.10;;;;;;;15.37;40.08;102590.16;5054405;28;20074;-81
2022/04/27 11:22:46;;;;;;;10.95;5.75;;;;;;;14.89;40.74;102577.41;5054181;28;20018;-81
2022/04/27 11:25:11;;;;;;;7.30;4.57;;;;;;;14.87;41.40;102566.09;5053674;28;20373;-81
2022/04/27 11:27:37;;;;;;;10.67;5.50;;;;;;;15.08;40.43;102578.16;5053651;28;20402;-81
2022/04/27 11:30:05;;;;;;;10.03;4.67;;;;;;;15.04;40.78;102577.28;5053298;28;20029;-81
2022/04/27 11:32:30;;;;;;;9.55;5.30;;;;;;;14.98;40.79;102577.34;5054114;28;20025;-81
2022/04/27 11:34:56;;;;;;;7.87;4.50;;;;;;;14.87;40.97;102573.94;5053837;28;20025;-81
2022/04/27 11:37:21;;;;;;;8.03;4.60;;;;;;;14.71;41.36;102575.75;5052855;28;20473;-81
2022/04/27 11:39:48;;;;;;;9.97;5.73;;;;;;;14.45;42.04;102576.69;5053573;28;20025;-81
2022/04/27 11:42:16;;;;;;;6.20;3.80;;;;;;;14.79;43.64;102579.19;5053893;28;20033;-81
2022/04/27 11:44:42;;;;;;;7.50;4.20;;;;;;;15.10;42.74;102574.66;5052998;28;20036;-81
2022/04/27 11:47:30;;;;;;;6.17;3.97;;;;;;;15.34;42.45;102567.53;5053972;28;20025;-81
2022/04/27 11:49:57;;;;;;;4.93;3.40;;;;;;;15.72;42.08;102574.16;5053548;28;20386;-82